Terminal Aerodrome Forecast
Issued by NWS

Home | Current Version | Previous Version | Text Only | Print | Product List | Glossary Off
Versions: 1 2 3 4 5 6 7 8 9 10 11 12 13

000
FTUS45 KGGW 231121
TAFOLF
TAF
KOLF 231121Z 2312/2412 08014KT P6SM -SHRA VCTS SCT010 OVC025CB
      TEMPO 2312/2314 BKN010CB
     FM231600 08010KT P6SM -RA OVC015
     FM232100 09008KT P6SM -RA OVC010
     FM240200 06004KT P6SM -RA OVC007=

USA.gov is the U.S. government's official web portal to all federal, state and local government web resources and services.